sensor_id;sensor_type;location;lat;lon;timestamp;P1;durP1;ratioP1;P2;durP2;ratioP2
76296;SDS011;65104;52.994;6.552;2023-04-25T00:00:41;5.53;;;1.83;;
76296;SDS011;65104;52.994;6.552;2023-04-25T00:03:06;5.43;;;2.53;;
76296;SDS011;65104;52.994;6.552;2023-04-25T00:05:33;12.20;;;3.00;;
76296;SDS011;65104;52.994;6.552;2023-04-25T00:07:59;11.07;;;2.58;;
76296;SDS011;65104;52.994;6.552;2023-04-25T00:10:25;8.90;;;2.55;;
76296;SDS011;65104;52.994;6.552;2023-04-25T00:12:50;6.10;;;2.22;;
76296;SDS011;65104;52.994;6.552;2023-04-25T00:15:16;6.05;;;2.28;;
76296;SDS011;65104;52.994;6.552;2023-04-25T00:17:42;8.15;;;2.25;;
76296;SDS011;65104;52.994;6.552;2023-04-25T00:20:08;9.27;;;2.90;;
76296;SDS011;65104;52.994;6.552;2023-04-25T00:22:34;9.57;;;2.15;;
76296;SDS011;65104;52.994;6.552;2023-04-25T00:25:02;7.85;;;2.35;;
76296;SDS011;65104;52.994;6.552;2023-04-25T00:27:29;5.63;;;1.70;;
76296;SDS011;65104;52.994;6.552;2023-04-25T00:29:54;8.45;;;2.42;;
76296;SDS011;65104;52.994;6.552;2023-04-25T00:32:19;2.10;;;1.05;;
76296;SDS011;65104;52.994;6.552;2023-04-25T00:34:45;4.82;;;1.50;;
76296;SDS011;65104;52.994;6.552;2023-04-25T00:37:10;6.68;;;2.17;;
76296;SDS011;65104;52.994;6.552;2023-04-25T00:39:36;9.75;;;2.20;;
76296;SDS011;65104;52.994;6.552;2023-04-25T00:42:02;10.20;;;2.78;;
76296;SDS011;65104;52.994;6.552;2023-04-25T00:44:27;6.70;;;2.30;;
76296;SDS011;65104;52.994;6.552;2023-04-25T00:46:55;7.55;;;2.15;;
76296;SDS011;65104;52.994;6.552;2023-04-25T00:49:20;4.97;;;2.35;;
76296;SDS011;65104;52.994;6.552;2023-04-25T00:51:46;9.40;;;2.63;;
76296;SDS011;65104;52.994;6.552;2023-04-25T00:54:12;3.17;;;1.98;;
76296;SDS011;65104;52.994;6.552;2023-04-25T00:56:38;8.85;;;2.33;;
76296;SDS011;65104;52.994;6.552;2023-04-25T00:59:04;11.80;;;2.53;;
76296;SDS011;65104;52.994;6.552;2023-04-25T01:01:30;11.05;;;2.85;;
76296;SDS011;65104;52.994;6.552;2023-04-25T01:03:56;10.93;;;2.30;;
76296;SDS011;65104;52.994;6.552;2023-04-25T01:06:23;3.83;;;2.00;;
76296;SDS011;65104;52.994;6.552;2023-04-25T01:08:49;7.00;;;2.40;;
76296;SDS011;65104;52.994;6.552;2023-04-25T01:11:14;9.25;;;2.55;;
76296;SDS011;65104;52.994;6.552;2023-04-25T01:13:40;5.72;;;2.33;;
76296;SDS011;65104;52.994;6.552;2023-04-25T01:16:05;6.30;;;2.15;;
76296;SDS011;65104;52.994;6.552;2023-04-25T01:18:31;3.60;;;1.75;;
76296;SDS011;65104;52.994;6.552;2023-04-25T01:21:02;7.78;;;1.77;;
76296;SDS011;65104;52.994;6.552;2023-04-25T01:23:32;5.43;;;1.73;;
76296;SDS011;65104;52.994;6.552;2023-04-25T01:25:58;9.05;;;2.03;;
76296;SDS011;65104;52.994;6.552;2023-04-25T01:28:24;10.38;;;2.15;;
76296;SDS011;65104;52.994;6.552;2023-04-25T01:30:49;8.95;;;2.10;;
76296;SDS011;65104;52.994;6.552;2023-04-25T01:33:16;3.60;;;1.35;;
76296;SDS011;65104;52.994;6.552;2023-04-25T01:35:42;11.00;;;1.77;;
76296;SDS011;65104;52.994;6.552;2023-04-25T01:38:07;4.72;;;1.75;;
76296;SDS011;65104;52.994;6.552;2023-04-25T01:40:33;5.18;;;2.63;;
76296;SDS011;65104;52.994;6.552;2023-04-25T01:42:59;5.47;;;1.92;;
76296;SDS011;65104;52.994;6.552;2023-04-25T01:45:25;6.63;;;1.85;;
76296;SDS011;65104;52.994;6.552;2023-04-25T01:47:50;5.65;;;1.98;;
76296;SDS011;65104;52.994;6.552;2023-04-25T01:50:16;11.07;;;2.38;;
76296;SDS011;65104;52.994;6.552;2023-04-25T01:52:43;6.55;;;2.35;;
76296;SDS011;65104;52.994;6.552;2023-04-25T01:55:08;4.43;;;1.50;;
76296;SDS011;65104;52.994;6.552;2023-04-25T01:57:34;4.72;;;1.42;;
76296;SDS011;65104;52.994;6.552;2023-04-25T02:00:01;5.95;;;1.77;;
76296;SDS011;65104;52.994;6.552;2023-04-25T02:02:28;3.97;;;1.65;;
76296;SDS011;65104;52.994;6.552;2023-04-25T02:04:53;6.22;;;1.67;;
76296;SDS011;65104;52.994;6.552;2023-04-25T02:07:21;11.20;;;2.35;;
76296;SDS011;65104;52.994;6.552;2023-04-25T02:09:47;5.03;;;1.23;;
76296;SDS011;65104;52.994;6.552;2023-04-25T02:12:12;6.18;;;1.05;;
76296;SDS011;65104;52.994;6.552;2023-04-25T02:14:38;4.50;;;1.45;;
76296;SDS011;65104;52.994;6.552;2023-04-25T02:17:03;4.40;;;1.73;;
76296;SDS011;65104;52.994;6.552;2023-04-25T02:19:28;9.98;;;2.00;;
76296;SDS011;65104;52.994;6.552;2023-04-25T02:21:54;7.28;;;1.80;;
76296;SDS011;65104;52.994;6.552;2023-04-25T02:24:20;3.90;;;1.95;;
76296;SDS011;65104;52.994;6.552;2023-04-25T02:26:45;6.10;;;1.98;;
76296;SDS011;65104;52.994;6.552;2023-04-25T02:29:11;3.55;;;1.50;;
76296;SDS011;65104;52.994;6.552;2023-04-25T02:31:37;3.97;;;1.65;;
76296;SDS011;65104;52.994;6.552;2023-04-25T02:34:02;11.10;;;2.22;;
76296;SDS011;65104;52.994;6.552;2023-04-25T02:36:27;5.13;;;1.60;;
76296;SDS011;65104;52.994;6.552;2023-04-25T02:38:55;5.10;;;1.40;;
76296;SDS011;65104;52.994;6.552;2023-04-25T02:41:20;6.82;;;2.45;;
76296;SDS011;65104;52.994;6.552;2023-04-25T02:43:46;2.30;;;1.20;;
76296;SDS011;65104;52.994;6.552;2023-04-25T02:46:11;4.72;;;1.60;;
76296;SDS011;65104;52.994;6.552;2023-04-25T02:48:36;4.13;;;1.10;;
76296;SDS011;65104;52.994;6.552;2023-04-25T02:51:02;7.38;;;1.90;;
76296;SDS011;65104;52.994;6.552;2023-04-25T02:53:27;1.50;;;1.10;;
76296;SDS011;65104;52.994;6.552;2023-04-25T02:55:52;4.32;;;1.38;;
76296;SDS011;65104;52.994;6.552;2023-04-25T02:58:18;4.05;;;0.90;;
76296;SDS011;65104;52.994;6.552;2023-04-25T03:00:43;8.10;;;1.40;;
76296;SDS011;65104;52.994;6.552;2023-04-25T03:03:09;3.33;;;1.25;;
76296;SDS011;65104;52.994;6.552;2023-04-25T03:05:34;5.20;;;1.65;;
76296;SDS011;65104;52.994;6.552;2023-04-25T03:07:59;2.55;;;1.00;;
76296;SDS011;65104;52.994;6.552;2023-04-25T03:10:25;7.75;;;1.52;;
76296;SDS011;65104;52.994;6.552;2023-04-25T03:12:51;7.45;;;1.52;;
76296;SDS011;65104;52.994;6.552;2023-04-25T03:15:16;5.28;;;1.20;;
76296;SDS011;65104;52.994;6.552;2023-04-25T03:17:41;4.45;;;1.33;;
76296;SDS011;65104;52.994;6.552;2023-04-25T03:20:07;9.35;;;1.55;;
76296;SDS011;65104;52.994;6.552;2023-04-25T03:22:33;4.15;;;1.42;;
76296;SDS011;65104;52.994;6.552;2023-04-25T03:24:58;4.68;;;1.63;;
76296;SDS011;65104;52.994;6.552;2023-04-25T03:27:24;6.88;;;1.17;;
76296;SDS011;65104;52.994;6.552;2023-04-25T03:29:49;4.93;;;1.55;;
76296;SDS011;65104;52.994;6.552;2023-04-25T03:32:15;3.72;;;1.23;;
76296;SDS011;65104;52.994;6.552;2023-04-25T03:34:40;6.20;;;1.77;;
76296;SDS011;65104;52.994;6.552;2023-04-25T03:37:06;3.10;;;1.10;;
76296;SDS011;65104;52.994;6.552;2023-04-25T03:39:31;3.38;;;0.90;;
76296;SDS011;65104;52.994;6.552;2023-04-25T03:41:57;4.20;;;1.30;;
76296;SDS011;65104;52.994;6.552;2023-04-25T03:44:22;3.58;;;1.02;;
76296;SDS011;65104;52.994;6.552;2023-04-25T03:46:49;3.85;;;1.38;;
76296;SDS011;65104;52.994;6.552;2023-04-25T03:49:14;2.42;;;1.23;;
76296;SDS011;65104;52.994;6.552;2023-04-25T03:51:40;6.40;;;1.02;;
76296;SDS011;65104;52.994;6.552;2023-04-25T03:54:05;2.28;;;1.40;;
76296;SDS011;65104;52.994;6.552;2023-04-25T03:56:30;3.90;;;1.00;;
76296;SDS011;65104;52.994;6.552;2023-04-25T03:58:56;7.00;;;0.90;;
76296;SDS011;65104;52.994;6.552;2023-04-25T04:01:21;2.67;;;0.65;;
76296;SDS011;65104;52.994;6.552;2023-04-25T04:03:46;1.90;;;0.95;;
76296;SDS011;65104;52.994;6.552;2023-04-25T04:06:12;1.67;;;1.00;;
76296;SDS011;65104;52.994;6.552;2023-04-25T04:08:38;2.00;;;0.88;;
76296;SDS011;65104;52.994;6.552;2023-04-25T04:11:04;2.15;;;0.65;;
76296;SDS011;65104;52.994;6.552;2023-04-25T04:13:30;5.50;;;0.70;;
76296;SDS011;65104;52.994;6.552;2023-04-25T04:15:55;3.58;;;1.00;;
76296;SDS011;65104;52.994;6.552;2023-04-25T04:18:21;3.75;;;0.95;;
76296;SDS011;65104;52.994;6.552;2023-04-25T04:20:46;6.57;;;0.80;;
76296;SDS011;65104;52.994;6.552;2023-04-25T04:23:11;9.13;;;1.30;;
76296;SDS011;65104;52.994;6.552;2023-04-25T04:25:37;2.95;;;1.40;;
76296;SDS011;65104;52.994;6.552;2023-04-25T04:28:03;1.75;;;0.52;;
76296;SDS011;65104;52.994;6.552;2023-04-25T04:30:28;1.85;;;0.73;;
76296;SDS011;65104;52.994;6.552;2023-04-25T04:32:58;3.38;;;0.80;;
76296;SDS011;65104;52.994;6.552;2023-04-25T04:35:25;0.63;;;0.63;;
76296;SDS011;65104;52.994;6.552;2023-04-25T04:37:51;2.50;;;1.00;;
76296;SDS011;65104;52.994;6.552;2023-04-25T04:40:17;2.70;;;0.80;;
76296;SDS011;65104;52.994;6.552;2023-04-25T04:42:43;3.15;;;0.85;;
76296;SDS011;65104;52.994;6.552;2023-04-25T04:45:12;3.20;;;0.57;;
76296;SDS011;65104;52.994;6.552;2023-04-25T04:47:38;3.42;;;1.35;;
76296;SDS011;65104;52.994;6.552;2023-04-25T04:50:05;2.83;;;1.02;;
76296;SDS011;65104;52.994;6.552;2023-04-25T04:52:33;2.22;;;0.93;;
76296;SDS011;65104;52.994;6.552;2023-04-25T04:54:59;4.05;;;1.27;;
76296;SDS011;65104;52.994;6.552;2023-04-25T04:57:25;3.47;;;0.88;;
76296;SDS011;65104;52.994;6.552;2023-04-25T04:59:50;3.80;;;1.08;;
76296;SDS011;65104;52.994;6.552;2023-04-25T05:02:16;4.00;;;1.20;;
76296;SDS011;65104;52.994;6.552;2023-04-25T05:04:41;0.55;;;0.55;;
76296;SDS011;65104;52.994;6.552;2023-04-25T05:07:07;4.13;;;0.77;;
76296;SDS011;65104;52.994;6.552;2023-04-25T05:09:32;1.75;;;0.90;;
76296;SDS011;65104;52.994;6.552;2023-04-25T05:11:57;2.30;;;0.80;;
76296;SDS011;65104;52.994;6.552;2023-04-25T05:14:23;3.28;;;0.60;;
76296;SDS011;65104;52.994;6.552;2023-04-25T05:16:48;2.72;;;0.85;;
76296;SDS011;65104;52.994;6.552;2023-04-25T05:19:14;2.90;;;1.13;;
76296;SDS011;65104;52.994;6.552;2023-04-25T05:21:39;4.22;;;1.02;;
76296;SDS011;65104;52.994;6.552;2023-04-25T05:24:05;4.68;;;1.08;;
76296;SDS011;65104;52.994;6.552;2023-04-25T05:26:30;2.08;;;0.75;;
76296;SDS011;65104;52.994;6.552;2023-04-25T05:28:59;2.22;;;1.35;;
76296;SDS011;65104;52.994;6.552;2023-04-25T05:31:24;3.35;;;0.60;;
76296;SDS011;65104;52.994;6.552;2023-04-25T05:33:50;4.55;;;1.40;;
76296;SDS011;65104;52.994;6.552;2023-04-25T05:36:16;5.20;;;1.02;;
76296;SDS011;65104;52.994;6.552;2023-04-25T05:38:41;2.40;;;1.02;;
76296;SDS011;65104;52.994;6.552;2023-04-25T05:41:06;3.25;;;1.05;;
76296;SDS011;65104;52.994;6.552;2023-04-25T05:43:32;1.55;;;0.70;;
76296;SDS011;65104;52.994;6.552;2023-04-25T05:45:58;2.97;;;0.80;;
76296;SDS011;65104;52.994;6.552;2023-04-25T05:48:23;3.10;;;0.93;;
76296;SDS011;65104;52.994;6.552;2023-04-25T05:50:49;4.50;;;0.90;;
76296;SDS011;65104;52.994;6.552;2023-04-25T05:53:14;6.43;;;1.48;;
76296;SDS011;65104;52.994;6.552;2023-04-25T05:55:39;1.23;;;0.80;;
76296;SDS011;65104;52.994;6.552;2023-04-25T05:58:05;4.50;;;0.70;;
76296;SDS011;65104;52.994;6.552;2023-04-25T06:00:32;6.10;;;0.70;;
76296;SDS011;65104;52.994;6.552;2023-04-25T06:02:57;6.93;;;1.08;;
76296;SDS011;65104;52.994;6.552;2023-04-25T06:05:23;5.20;;;1.20;;
76296;SDS011;65104;52.994;6.552;2023-04-25T06:07:48;2.28;;;0.82;;
76296;SDS011;65104;52.994;6.552;2023-04-25T06:10:13;5.53;;;0.98;;
76296;SDS011;65104;52.994;6.552;2023-04-25T06:12:40;5.90;;;1.50;;
76296;SDS011;65104;52.994;6.552;2023-04-25T06:15:05;2.90;;;1.10;;
76296;SDS011;65104;52.994;6.552;2023-04-25T06:17:31;4.38;;;1.20;;
76296;SDS011;65104;52.994;6.552;2023-04-25T06:19:57;3.00;;;0.88;;
76296;SDS011;65104;52.994;6.552;2023-04-25T06:22:23;4.35;;;0.88;;
76296;SDS011;65104;52.994;6.552;2023-04-25T06:24:48;3.35;;;1.17;;
76296;SDS011;65104;52.994;6.552;2023-04-25T06:27:13;2.85;;;0.73;;
76296;SDS011;65104;52.994;6.552;2023-04-25T06:29:39;6.40;;;1.55;;
76296;SDS011;65104;52.994;6.552;2023-04-25T06:32:04;3.17;;;1.05;;
76296;SDS011;65104;52.994;6.552;2023-04-25T06:34:30;3.47;;;1.17;;
76296;SDS011;65104;52.994;6.552;2023-04-25T06:36:55;0.43;;;0.43;;
76296;SDS011;65104;52.994;6.552;2023-04-25T06:39:21;4.88;;;0.80;;
76296;SDS011;65104;52.994;6.552;2023-04-25T06:41:48;1.42;;;0.82;;
76296;SDS011;65104;52.994;6.552;2023-04-25T06:44:13;6.55;;;0.80;;
76296;SDS011;65104;52.994;6.552;2023-04-25T06:46:40;2.80;;;0.73;;
76296;SDS011;65104;52.994;6.552;2023-04-25T06:49:05;1.10;;;0.47;;
76296;SDS011;65104;52.994;6.552;2023-04-25T06:51:31;3.50;;;0.80;;
76296;SDS011;65104;52.994;6.552;2023-04-25T06:53:56;4.10;;;1.08;;
76296;SDS011;65104;52.994;6.552;2023-04-25T06:56:22;6.07;;;0.90;;
76296;SDS011;65104;52.994;6.552;2023-04-25T06:58:48;3.20;;;0.55;;
76296;SDS011;65104;52.994;6.552;2023-04-25T07:01:13;1.50;;;0.85;;
76296;SDS011;65104;52.994;6.552;2023-04-25T07:03:39;1.08;;;0.43;;
76296;SDS011;65104;52.994;6.552;2023-04-25T07:06:04;3.95;;;1.38;;
76296;SDS011;65104;52.994;6.552;2023-04-25T07:08:30;4.38;;;0.85;;
76296;SDS011;65104;52.994;6.552;2023-04-25T07:10:55;1.30;;;0.65;;
76296;SDS011;65104;52.994;6.552;2023-04-25T07:13:21;3.40;;;1.13;;
76296;SDS011;65104;52.994;6.552;2023-04-25T07:15:46;6.97;;;0.93;;
76296;SDS011;65104;52.994;6.552;2023-04-25T07:18:13;4.72;;;0.98;;
76296;SDS011;65104;52.994;6.552;2023-04-25T07:20:38;4.50;;;0.60;;
76296;SDS011;65104;52.994;6.552;2023-04-25T07:23:04;2.35;;;0.70;;
76296;SDS011;65104;52.994;6.552;2023-04-25T07:25:29;1.02;;;0.90;;
76296;SDS011;65104;52.994;6.552;2023-04-25T07:27:55;0.90;;;0.47;;
76296;SDS011;65104;52.994;6.552;2023-04-25T07:30:21;3.72;;;0.70;;
76296;SDS011;65104;52.994;6.552;2023-04-25T07:32:46;1.48;;;0.45;;
76296;SDS011;65104;52.994;6.552;2023-04-25T07:35:12;5.20;;;1.02;;
76296;SDS011;65104;52.994;6.552;2023-04-25T07:37:37;3.88;;;0.70;;
76296;SDS011;65104;52.994;6.552;2023-04-25T07:40:03;4.22;;;1.42;;
76296;SDS011;65104;52.994;6.552;2023-04-25T07:42:29;1.92;;;0.80;;
76296;SDS011;65104;52.994;6.552;2023-04-25T07:44:55;4.20;;;1.42;;
76296;SDS011;65104;52.994;6.552;2023-04-25T07:47:20;4.28;;;0.90;;
76296;SDS011;65104;52.994;6.552;2023-04-25T07:49:46;1.90;;;0.57;;
76296;SDS011;65104;52.994;6.552;2023-04-25T07:52:12;2.25;;;0.85;;
76296;SDS011;65104;52.994;6.552;2023-04-25T07:54:37;3.55;;;1.52;;
76296;SDS011;65104;52.994;6.552;2023-04-25T07:57:02;5.88;;;1.10;;
76296;SDS011;65104;52.994;6.552;2023-04-25T07:59:28;4.35;;;1.08;;
76296;SDS011;65104;52.994;6.552;2023-04-25T08:01:53;1.70;;;0.70;;
76296;SDS011;65104;52.994;6.552;2023-04-25T08:04:19;1.92;;;0.98;;
76296;SDS011;65104;52.994;6.552;2023-04-25T08:06:44;4.25;;;0.95;;
76296;SDS011;65104;52.994;6.552;2023-04-25T08:09:10;1.38;;;0.50;;
76296;SDS011;65104;52.994;6.552;2023-04-25T08:11:36;4.80;;;1.15;;
76296;SDS011;65104;52.994;6.552;2023-04-25T08:14:01;0.95;;;0.65;;
76296;SDS011;65104;52.994;6.552;2023-04-25T08:16:27;1.70;;;0.70;;
76296;SDS011;65104;52.994;6.552;2023-04-25T08:18:53;0.50;;;0.40;;
76296;SDS011;65104;52.994;6.552;2023-04-25T08:21:18;1.45;;;0.70;;
76296;SDS011;65104;52.994;6.552;2023-04-25T08:23:43;2.20;;;0.88;;
76296;SDS011;65104;52.994;6.552;2023-04-25T08:26:09;2.38;;;0.60;;
76296;SDS011;65104;52.994;6.552;2023-04-25T08:28:34;2.45;;;0.60;;
76296;SDS011;65104;52.994;6.552;2023-04-25T08:31:00;1.73;;;0.50;;
76296;SDS011;65104;52.994;6.552;2023-04-25T08:33:25;1.75;;;1.15;;
76296;SDS011;65104;52.994;6.552;2023-04-25T08:35:50;1.63;;;1.00;;
76296;SDS011;65104;52.994;6.552;2023-04-25T08:38:16;1.88;;;0.75;;
76296;SDS011;65104;52.994;6.552;2023-04-25T08:40:42;1.70;;;1.00;;
76296;SDS011;65104;52.994;6.552;2023-04-25T08:43:09;2.45;;;0.88;;
76296;SDS011;65104;52.994;6.552;2023-04-25T08:45:41;4.20;;;1.20;;
76296;SDS011;65104;52.994;6.552;2023-04-25T08:48:07;7.50;;;0.93;;
76296;SDS011;65104;52.994;6.552;2023-04-25T08:50:39;2.83;;;0.50;;
76296;SDS011;65104;52.994;6.552;2023-04-25T08:53:08;0.98;;;0.73;;
76296;SDS011;65104;52.994;6.552;2023-04-25T08:55:36;0.40;;;0.30;;
76296;SDS011;65104;52.994;6.552;2023-04-25T08:58:06;0.88;;;0.20;;
76296;SDS011;65104;52.994;6.552;2023-04-25T09:00:32;2.55;;;0.40;;
76296;SDS011;65104;52.994;6.552;2023-04-25T09:02:58;0.77;;;0.60;;
76296;SDS011;65104;52.994;6.552;2023-04-25T09:05:24;3.05;;;0.70;;
76296;SDS011;65104;52.994;6.552;2023-04-25T09:07:49;2.28;;;0.63;;
76296;SDS011;65104;52.994;6.552;2023-04-25T09:10:15;0.30;;;0.30;;
76296;SDS011;65104;52.994;6.552;2023-04-25T09:12:41;0.90;;;0.35;;
76296;SDS011;65104;52.994;6.552;2023-04-25T09:15:08;2.95;;;0.43;;
76296;SDS011;65104;52.994;6.552;2023-04-25T09:17:35;0.95;;;0.60;;
76296;SDS011;65104;52.994;6.552;2023-04-25T09:20:08;0.75;;;0.70;;
76296;SDS011;65104;52.994;6.552;2023-04-25T09:22:36;1.02;;;0.45;;
76296;SDS011;65104;52.994;6.552;2023-04-25T09:25:11;0.77;;;0.40;;
76296;SDS011;65104;52.994;6.552;2023-04-25T09:27:51;0.85;;;0.60;;
76296;SDS011;65104;52.994;6.552;2023-04-25T09:30:18;2.83;;;0.50;;
76296;SDS011;65104;52.994;6.552;2023-04-25T09:32:44;3.72;;;0.45;;
76296;SDS011;65104;52.994;6.552;2023-04-25T09:35:10;1.48;;;0.55;;
76296;SDS011;65104;52.994;6.552;2023-04-25T09:37:36;2.50;;;0.63;;
76296;SDS011;65104;52.994;6.552;2023-04-25T09:40:04;2.75;;;0.70;;
76296;SDS011;65104;52.994;6.552;2023-04-25T09:42:31;2.88;;;0.90;;
76296;SDS011;65104;52.994;6.552;2023-04-25T09:44:59;1.65;;;0.60;;
76296;SDS011;65104;52.994;6.552;2023-04-25T09:47:27;2.13;;;0.95;;
76296;SDS011;65104;52.994;6.552;2023-04-25T09:49:53;1.35;;;0.47;;
76296;SDS011;65104;52.994;6.552;2023-04-25T09:52:21;8.07;;;1.08;;
76296;SDS011;65104;52.994;6.552;2023-04-25T09:54:48;2.67;;;1.10;;
76296;SDS011;65104;52.994;6.552;2023-04-25T09:59:43;7.57;;;0.80;;
76296;SDS011;65104;52.994;6.552;2023-04-25T10:02:10;3.92;;;0.88;;
76296;SDS011;65104;52.994;6.552;2023-04-25T10:04:36;1.90;;;0.82;;
76296;SDS011;65104;52.994;6.552;2023-04-25T10:07:03;2.72;;;0.65;;
76296;SDS011;65104;52.994;6.552;2023-04-25T10:09:31;4.07;;;0.95;;
76296;SDS011;65104;52.994;6.552;2023-04-25T10:11:58;4.63;;;1.00;;
76296;SDS011;65104;52.994;6.552;2023-04-25T10:14:25;2.65;;;0.80;;
76296;SDS011;65104;52.994;6.552;2023-04-25T10:16:51;1.50;;;0.98;;
76296;SDS011;65104;52.994;6.552;2023-04-25T10:19:19;2.13;;;0.90;;
76296;SDS011;65104;52.994;6.552;2023-04-25T10:24:34;2.13;;;0.90;;
76296;SDS011;65104;52.994;6.552;2023-04-25T10:27:01;4.70;;;1.27;;
76296;SDS011;65104;52.994;6.552;2023-04-25T10:29:27;4.57;;;1.05;;
76296;SDS011;65104;52.994;6.552;2023-04-25T10:31:52;3.33;;;0.80;;
76296;SDS011;65104;52.994;6.552;2023-04-25T10:34:18;8.18;;;1.35;;
76296;SDS011;65104;52.994;6.552;2023-04-25T10:36:51;2.20;;;0.63;;
76296;SDS011;65104;52.994;6.552;2023-04-25T10:39:24;3.72;;;0.88;;
76296;SDS011;65104;52.994;6.552;2023-04-25T10:41:53;1.98;;;0.50;;
76296;SDS011;65104;52.994;6.552;2023-04-25T10:44:23;7.65;;;1.55;;
76296;SDS011;65104;52.994;6.552;2023-04-25T10:46:51;4.07;;;0.70;;
76296;SDS011;65104;52.994;6.552;2023-04-25T10:52:14;3.53;;;0.60;;
76296;SDS011;65104;52.994;6.552;2023-04-25T10:54:42;2.75;;;0.63;;
76296;SDS011;65104;52.994;6.552;2023-04-25T10:57:53;2.42;;;0.57;;
76296;SDS011;65104;52.994;6.552;2023-04-25T11:02:47;1.08;;;0.60;;
76296;SDS011;65104;52.994;6.552;2023-04-25T11:05:26;2.03;;;1.15;;
76296;SDS011;65104;52.994;6.552;2023-04-25T11:07:56;1.65;;;0.75;;
76296;SDS011;65104;52.994;6.552;2023-04-25T11:10:26;5.38;;;1.40;;
76296;SDS011;65104;52.994;6.552;2023-04-25T11:12:52;1.23;;;1.08;;
76296;SDS011;65104;52.994;6.552;2023-04-25T11:15:18;3.35;;;0.70;;
76296;SDS011;65104;52.994;6.552;2023-04-25T11:17:43;3.10;;;0.50;;
76296;SDS011;65104;52.994;6.552;2023-04-25T11:20:11;3.38;;;0.57;;
76296;SDS011;65104;52.994;6.552;2023-04-25T11:22:38;1.77;;;0.50;;
76296;SDS011;65104;52.994;6.552;2023-04-25T11:25:08;0.50;;;0.45;;
76296;SDS011;65104;52.994;6.552;2023-04-25T11:27:38;2.58;;;0.60;;
76296;SDS011;65104;52.994;6.552;2023-04-25T11:30:26;1.02;;;0.40;;
76296;SDS011;65104;52.994;6.552;2023-04-25T11:32:53;0.40;;;0.40;;
76296;SDS011;65104;52.994;6.552;2023-04-25T11:35:19;6.40;;;0.98;;
76296;SDS011;65104;52.994;6.552;2023-04-25T11:37:47;2.72;;;0.75;;
76296;SDS011;65104;52.994;6.552;2023-04-25T11:40:13;1.38;;;0.65;;
76296;SDS011;65104;52.994;6.552;2023-04-25T11:42:39;4.50;;;1.05;;
76296;SDS011;65104;52.994;6.552;2023-04-25T11:45:08;1.35;;;0.80;;
76296;SDS011;65104;52.994;6.552;2023-04-25T11:47:34;5.85;;;1.13;;
76296;SDS011;65104;52.994;6.552;2023-04-25T11:50:00;6.07;;;1.13;;
76296;SDS011;65104;52.994;6.552;2023-04-25T11:52:37;2.75;;;0.80;;
76296;SDS011;65104;52.994;6.552;2023-04-25T11:55:07;2.40;;;0.82;;
76296;SDS011;65104;52.994;6.552;2023-04-25T12:00:07;1.90;;;0.90;;
76296;SDS011;65104;52.994;6.552;2023-04-25T12:02:40;4.32;;;1.00;;
76296;SDS011;65104;52.994;6.552;2023-04-25T12:05:07;0.55;;;0.55;;
76296;SDS011;65104;52.994;6.552;2023-04-25T12:07:34;2.40;;;0.75;;
76296;SDS011;65104;52.994;6.552;2023-04-25T12:10:03;3.30;;;0.85;;
76296;SDS011;65104;52.994;6.552;2023-04-25T12:12:35;3.67;;;1.10;;
76296;SDS011;65104;52.994;6.552;2023-04-25T12:15:08;3.20;;;0.82;;
76296;SDS011;65104;52.994;6.552;2023-04-25T12:20:10;2.50;;;0.70;;
76296;SDS011;65104;52.994;6.552;2023-04-25T12:22:40;1.02;;;0.60;;
76296;SDS011;65104;52.994;6.552;2023-04-25T12:25:09;3.78;;;0.50;;
76296;SDS011;65104;52.994;6.552;2023-04-25T12:27:53;2.40;;;1.00;;
76296;SDS011;65104;52.994;6.552;2023-04-25T12:30:18;4.13;;;0.60;;
76296;SDS011;65104;52.994;6.552;2023-04-25T12:32:44;0.88;;;0.30;;
76296;SDS011;65104;52.994;6.552;2023-04-25T12:35:09;1.27;;;0.63;;
76296;SDS011;65104;52.994;6.552;2023-04-25T12:37:35;2.05;;;0.50;;
76296;SDS011;65104;52.994;6.552;2023-04-25T12:40:01;1.83;;;0.60;;
76296;SDS011;65104;52.994;6.552;2023-04-25T12:42:26;1.77;;;0.68;;
76296;SDS011;65104;52.994;6.552;2023-04-25T12:44:51;1.10;;;0.73;;
76296;SDS011;65104;52.994;6.552;2023-04-25T12:47:17;3.15;;;1.02;;
76296;SDS011;65104;52.994;6.552;2023-04-25T12:49:42;3.17;;;0.68;;
76296;SDS011;65104;52.994;6.552;2023-04-25T12:52:08;3.08;;;0.60;;
76296;SDS011;65104;52.994;6.552;2023-04-25T12:54:33;2.55;;;1.20;;
76296;SDS011;65104;52.994;6.552;2023-04-25T12:56:59;2.42;;;1.02;;
76296;SDS011;65104;52.994;6.552;2023-04-25T12:59:24;6.03;;;1.40;;
76296;SDS011;65104;52.994;6.552;2023-04-25T13:01:49;4.75;;;0.68;;
76296;SDS011;65104;52.994;6.552;2023-04-25T13:04:15;4.18;;;0.77;;
76296;SDS011;65104;52.994;6.552;2023-04-25T13:06:40;1.60;;;0.88;;
76296;SDS011;65104;52.994;6.552;2023-04-25T13:09:06;6.15;;;1.02;;
76296;SDS011;65104;52.994;6.552;2023-04-25T13:11:31;1.02;;;0.70;;
76296;SDS011;65104;52.994;6.552;2023-04-25T13:13:57;1.20;;;0.73;;
76296;SDS011;65104;52.994;6.552;2023-04-25T13:16:22;1.35;;;0.65;;
76296;SDS011;65104;52.994;6.552;2023-04-25T13:18:48;3.38;;;0.65;;
76296;SDS011;65104;52.994;6.552;2023-04-25T13:21:13;4.80;;;1.23;;
76296;SDS011;65104;52.994;6.552;2023-04-25T13:23:39;2.50;;;1.05;;
76296;SDS011;65104;52.994;6.552;2023-04-25T13:28:31;3.33;;;1.07;;
76296;SDS011;65104;52.994;6.552;2023-04-25T13:30:57;2.10;;;0.68;;
76296;SDS011;65104;52.994;6.552;2023-04-25T13:33:23;3.00;;;0.70;;
76296;SDS011;65104;52.994;6.552;2023-04-25T13:35:49;1.48;;;0.70;;
76296;SDS011;65104;52.994;6.552;2023-04-25T13:38:24;4.85;;;0.73;;
76296;SDS011;65104;52.994;6.552;2023-04-25T13:40:51;2.28;;;1.17;;
76296;SDS011;65104;52.994;6.552;2023-04-25T13:43:18;1.73;;;0.52;;
76296;SDS011;65104;52.994;6.552;2023-04-25T13:45:49;1.95;;;1.30;;
76296;SDS011;65104;52.994;6.552;2023-04-25T13:48:15;2.38;;;0.88;;
76296;SDS011;65104;52.994;6.552;2023-04-25T13:50:41;4.82;;;0.90;;
76296;SDS011;65104;52.994;6.552;2023-04-25T13:53:06;5.70;;;1.52;;
76296;SDS011;65104;52.994;6.552;2023-04-25T13:55:33;5.90;;;1.00;;
76296;SDS011;65104;52.994;6.552;2023-04-25T13:58:00;1.98;;;0.90;;
76296;SDS011;65104;52.994;6.552;2023-04-25T14:00:32;1.67;;;0.55;;
76296;SDS011;65104;52.994;6.552;2023-04-25T14:02:57;3.42;;;1.30;;
76296;SDS011;65104;52.994;6.552;2023-04-25T14:05:22;1.90;;;0.68;;
76296;SDS011;65104;52.994;6.552;2023-04-25T14:07:48;1.25;;;0.65;;
76296;SDS011;65104;52.994;6.552;2023-04-25T14:10:13;1.58;;;1.00;;
76296;SDS011;65104;52.994;6.552;2023-04-25T14:12:38;1.35;;;0.40;;
76296;SDS011;65104;52.994;6.552;2023-04-25T14:15:05;2.05;;;0.70;;
76296;SDS011;65104;52.994;6.552;2023-04-25T14:17:30;3.33;;;0.82;;
76296;SDS011;65104;52.994;6.552;2023-04-25T14:19:56;2.90;;;1.10;;
76296;SDS011;65104;52.994;6.552;2023-04-25T14:22:21;1.77;;;1.10;;
76296;SDS011;65104;52.994;6.552;2023-04-25T14:24:47;1.27;;;0.43;;
76296;SDS011;65104;52.994;6.552;2023-04-25T14:27:12;2.88;;;1.10;;
76296;SDS011;65104;52.994;6.552;2023-04-25T14:29:37;1.42;;;0.88;;
76296;SDS011;65104;52.994;6.552;2023-04-25T14:32:03;4.05;;;1.10;;
76296;SDS011;65104;52.994;6.552;2023-04-25T14:34:30;1.58;;;0.75;;
76296;SDS011;65104;52.994;6.552;2023-04-25T14:36:55;1.73;;;0.82;;
76296;SDS011;65104;52.994;6.552;2023-04-25T14:39:20;5.93;;;1.23;;
76296;SDS011;65104;52.994;6.552;2023-04-25T14:41:46;5.90;;;1.20;;
76296;SDS011;65104;52.994;6.552;2023-04-25T14:44:11;4.93;;;1.00;;
76296;SDS011;65104;52.994;6.552;2023-04-25T14:46:37;3.17;;;0.80;;
76296;SDS011;65104;52.994;6.552;2023-04-25T14:49:02;2.60;;;1.10;;
76296;SDS011;65104;52.994;6.552;2023-04-25T14:51:28;3.65;;;0.95;;
76296;SDS011;65104;52.994;6.552;2023-04-25T14:53:54;3.90;;;1.17;;
76296;SDS011;65104;52.994;6.552;2023-04-25T14:56:20;3.40;;;0.95;;
76296;SDS011;65104;52.994;6.552;2023-04-25T14:58:45;1.50;;;1.00;;
76296;SDS011;65104;52.994;6.552;2023-04-25T15:01:11;1.02;;;0.80;;